createdAt,value
2023-03-21T00:00:59.471Z,8.76
2023-03-21T00:03:28.936Z,8.84
2023-03-21T00:05:58.261Z,8.82
2023-03-21T00:08:27.851Z,8.87
2023-03-21T00:11:00.889Z,9.05
2023-03-21T00:13:38.544Z,9.00
2023-03-21T00:16:20.764Z,8.87
2023-03-21T00:18:58.718Z,8.72
2023-03-21T00:24:24.168Z,8.57
2023-03-21T00:26:53.916Z,8.78
2023-03-21T00:29:22.785Z,8.91
2023-03-21T00:31:51.454Z,8.98
2023-03-21T00:34:27.093Z,8.99
2023-03-21T00:37:07.459Z,9.12
2023-03-21T00:39:36.891Z,9.15
2023-03-21T00:42:05.877Z,9.12
2023-03-21T00:44:37.069Z,9.10
2023-03-21T00:47:08.251Z,9.11
2023-03-21T00:49:38.648Z,9.18
2023-03-21T00:52:27.360Z,9.23
2023-03-21T00:54:59.765Z,9.29
2023-03-21T00:57:38.550Z,9.34
2023-03-21T01:00:14.844Z,9.23
2023-03-21T01:03:14.148Z,9.18
2023-03-21T01:06:05.116Z,9.25
2023-03-21T01:08:51.285Z,9.22
2023-03-21T01:11:28.744Z,9.19
2023-03-21T01:14:10.815Z,9.26
2023-03-21T01:16:40.245Z,9.42
2023-03-21T01:19:24.961Z,9.64
2023-03-21T01:21:57.969Z,9.76
2023-03-21T01:24:26.751Z,9.81
2023-03-21T01:26:56.249Z,9.89
2023-03-21T01:29:24.933Z,9.96
2023-03-21T01:31:53.672Z,9.98
2023-03-21T01:34:23.037Z,10.07
2023-03-21T01:36:52.209Z,10.13
2023-03-21T01:39:21.716Z,10.26
2023-03-21T01:41:50.461Z,10.35
2023-03-21T01:44:20.514Z,10.31
2023-03-21T01:47:07.766Z,10.41
2023-03-21T01:49:46.512Z,10.46
2023-03-21T01:52:35.947Z,10.54
2023-03-21T01:55:12.593Z,10.49
2023-03-21T01:58:04.403Z,10.45
2023-03-21T02:00:36.645Z,10.40
2023-03-21T02:03:16.996Z,10.30
2023-03-21T02:06:12.883Z,10.32
2023-03-21T02:08:45.540Z,10.19
2023-03-21T02:11:14.405Z,9.72
2023-03-21T02:13:43.895Z,9.51
2023-03-21T02:16:30.301Z,9.41
2023-03-21T02:19:29.619Z,9.29
2023-03-21T02:22:49.252Z,9.19
2023-03-21T02:26:00.062Z,9.44
2023-03-21T02:28:56.562Z,9.56
2023-03-21T02:32:22.600Z,9.95
2023-03-21T02:35:37.112Z,9.88
2023-03-21T02:38:36.495Z,9.62
2023-03-21T02:41:20.384Z,9.49
2023-03-21T02:44:09.278Z,9.57
2023-03-21T02:47:20.780Z,9.55
2023-03-21T02:49:58.529Z,9.53
2023-03-21T02:52:39.100Z,9.71
2023-03-21T02:55:19.096Z,9.74
2023-03-21T02:57:53.242Z,9.84
2023-03-21T03:00:28.470Z,9.80
2023-03-21T03:03:08.713Z,9.63
2023-03-21T03:06:19.074Z,9.62
2023-03-21T03:09:19.085Z,9.60
2023-03-21T03:12:03.156Z,9.70
2023-03-21T03:15:13.806Z,9.86
2023-03-21T03:18:07.942Z,9.61
2023-03-21T03:21:15.958Z,9.57
2023-03-21T03:24:09.671Z,9.59
2023-03-21T03:27:20.268Z,9.49
2023-03-21T03:29:51.897Z,9.50
2023-03-21T03:32:36.847Z,9.50
2023-03-21T03:35:07.671Z,9.56
2023-03-21T03:37:37.997Z,9.49
2023-03-21T03:40:29.158Z,9.57
2023-03-21T03:43:06.335Z,9.57
2023-03-21T03:45:48.374Z,9.63
2023-03-21T03:48:31.397Z,9.47
2023-03-21T03:51:56.341Z,9.74
2023-03-21T03:54:43.058Z,9.95
2023-03-21T03:57:14.004Z,10.05
2023-03-21T03:59:45.930Z,10.06
2023-03-21T04:02:17.397Z,10.03
2023-03-21T04:04:47.201Z,9.93
2023-03-21T04:07:16.197Z,9.98
2023-03-21T04:09:45.625Z,9.78
2023-03-21T04:12:15.535Z,9.82
2023-03-21T04:14:46.049Z,9.82
2023-03-21T04:17:17.338Z,9.73
2023-03-21T04:19:46.803Z,9.74
2023-03-21T04:22:17.284Z,9.81
2023-03-21T04:24:47.253Z,9.71
2023-03-21T04:27:15.993Z,9.67
2023-03-21T04:29:45.752Z,9.72
2023-03-21T04:32:19.930Z,9.83
2023-03-21T04:34:54.301Z,9.86
2023-03-21T04:37:23.940Z,9.94
2023-03-21T04:39:52.537Z,9.97
2023-03-21T04:42:22.022Z,9.97
2023-03-21T04:44:51.082Z,9.98
2023-03-21T04:47:20.607Z,9.96
2023-03-21T04:49:50.084Z,9.83
2023-03-21T04:52:18.754Z,9.80
2023-03-21T04:54:47.379Z,9.87
2023-03-21T04:57:16.039Z,9.81
2023-03-21T04:59:44.717Z,9.78
2023-03-21T05:02:15.041Z,9.70
2023-03-21T05:04:43.925Z,9.71
2023-03-21T05:07:13.394Z,9.77
2023-03-21T05:09:42.085Z,9.66
2023-03-21T05:12:10.858Z,9.81
2023-03-21T05:14:39.497Z,9.77
2023-03-21T05:17:10.703Z,9.73
2023-03-21T05:19:40.790Z,9.74
2023-03-21T05:22:12.150Z,9.94
2023-03-21T05:24:42.080Z,10.06
2023-03-21T05:27:10.877Z,10.17
2023-03-21T05:29:40.488Z,10.15
2023-03-21T05:32:09.094Z,10.93
2023-03-21T05:34:38.547Z,10.62
2023-03-21T05:37:07.174Z,10.94
2023-03-21T05:39:36.734Z,11.14
2023-03-21T05:42:05.461Z,11.24
2023-03-21T05:44:34.125Z,11.52
2023-03-21T05:47:04.953Z,11.84
2023-03-21T05:49:34.449Z,11.95
2023-03-21T05:52:04.410Z,11.51
2023-03-21T05:54:33.188Z,11.95
2023-03-21T05:57:04.555Z,11.73
2023-03-21T05:59:33.652Z,12.21
2023-03-21T06:02:02.398Z,11.51
2023-03-21T06:04:32.770Z,12.47
2023-03-21T06:07:01.457Z,12.57
2023-03-21T06:09:31.188Z,11.82
2023-03-21T06:11:59.836Z,12.54
2023-03-21T06:14:28.737Z,12.84
2023-03-21T06:16:57.437Z,12.80
2023-03-21T06:19:27.333Z,13.29
2023-03-21T06:21:56.745Z,16.85
2023-03-21T06:24:26.697Z,19.78
2023-03-21T06:26:56.221Z,19.76
2023-03-21T06:29:24.862Z,20.39
2023-03-21T06:31:53.473Z,21.05
2023-03-21T06:34:22.209Z,20.67
2023-03-21T06:36:52.259Z,20.13
2023-03-21T06:39:21.644Z,22.34
2023-03-21T06:41:50.502Z,22.97
2023-03-21T06:44:19.056Z,24.39
2023-03-21T06:46:47.687Z,23.52
2023-03-21T06:49:16.516Z,24.30
2023-03-21T06:51:45.421Z,22.36
2023-03-21T06:54:14.840Z,22.94
2023-03-21T06:56:43.421Z,19.88
2023-03-21T06:59:12.286Z,19.43
2023-03-21T07:01:41.065Z,19.49
2023-03-21T07:04:11.214Z,17.76
2023-03-21T07:06:40.015Z,16.40
2023-03-21T07:09:08.823Z,16.81
2023-03-21T07:11:38.091Z,18.28
2023-03-21T07:14:06.967Z,21.41
2023-03-21T07:16:34.738Z,19.85
2023-03-21T07:19:03.381Z,22.98
2023-03-21T07:21:32.525Z,20.54
2023-03-21T07:24:01.281Z,17.96
2023-03-21T07:26:29.919Z,17.66
2023-03-21T07:28:58.544Z,18.30
2023-03-21T07:31:27.260Z,18.53
2023-03-21T07:33:55.764Z,18.56
2023-03-21T07:36:24.616Z,18.31
2023-03-21T07:38:53.205Z,17.66
2023-03-21T07:41:22.120Z,18.40
2023-03-21T07:43:50.731Z,17.86
2023-03-21T07:46:19.417Z,17.49
2023-03-21T07:48:48.474Z,18.08
2023-03-21T07:51:17.155Z,18.42
2023-03-21T07:53:48.728Z,18.44
2023-03-21T07:56:17.520Z,18.18
2023-03-21T07:58:46.245Z,18.27
2023-03-21T08:01:14.961Z,17.91
2023-03-21T08:03:44.351Z,18.14
2023-03-21T08:06:12.990Z,18.23
2023-03-21T08:08:41.664Z,18.15
2023-03-21T08:11:12.929Z,18.10
2023-03-21T08:13:42.079Z,17.96
2023-03-21T08:16:10.842Z,18.46
2023-03-21T08:18:39.388Z,18.19
2023-03-21T08:21:09.626Z,18.62
2023-03-21T08:23:38.244Z,18.39
2023-03-21T08:26:07.777Z,18.33
2023-03-21T08:28:39.510Z,18.00
2023-03-21T08:31:13.005Z,17.91
2023-03-21T08:33:41.684Z,18.13
2023-03-21T08:36:10.907Z,17.78
2023-03-21T08:38:39.752Z,18.37
2023-03-21T08:41:08.248Z,18.05
2023-03-21T08:43:36.753Z,18.13
2023-03-21T08:46:05.532Z,17.90
2023-03-21T08:48:34.160Z,17.89
2023-03-21T08:51:02.743Z,18.17
2023-03-21T08:53:31.383Z,18.70
2023-03-21T08:55:59.473Z,18.39
2023-03-21T08:58:27.510Z,18.46
2023-03-21T09:00:56.587Z,18.62
2023-03-21T09:03:27.467Z,19.27
2023-03-21T09:05:56.484Z,19.29
2023-03-21T09:08:24.976Z,18.84
2023-03-21T09:10:57.371Z,19.42
2023-03-21T09:13:26.846Z,18.79
2023-03-21T09:15:58.533Z,18.74
2023-03-21T09:18:49.593Z,19.04
2023-03-21T09:21:21.187Z,18.73
2023-03-21T09:23:53.069Z,18.51
2023-03-21T09:26:21.610Z,18.83
2023-03-21T09:28:49.893Z,18.98
2023-03-21T09:31:23.710Z,19.32
2023-03-21T09:33:53.453Z,19.34
2023-03-21T09:36:26.412Z,19.69
2023-03-21T09:38:57.197Z,19.42
2023-03-21T09:42:00.933Z,20.19
2023-03-21T09:45:16.691Z,19.68
2023-03-21T09:47:53.568Z,20.01
2023-03-21T09:50:35.544Z,19.92
2023-03-21T09:53:16.717Z,19.62
2023-03-21T09:55:47.257Z,19.33
2023-03-21T09:58:32.815Z,18.45
2023-03-21T10:01:34.688Z,18.78
2023-03-21T10:04:06.778Z,19.19
2023-03-21T10:06:40.724Z,19.34
2023-03-21T10:09:21.646Z,19.94
2023-03-21T10:12:21.604Z,20.55
2023-03-21T10:14:59.653Z,21.36
2023-03-21T10:17:44.322Z,20.67
2023-03-21T10:20:23.008Z,19.77
2023-03-21T10:22:58.823Z,20.70
2023-03-21T10:26:05.470Z,20.97
2023-03-21T10:28:52.518Z,20.34
2023-03-21T10:31:27.148Z,19.64
2023-03-21T10:34:03.867Z,20.04
2023-03-21T10:36:34.739Z,19.29
2023-03-21T10:39:22.566Z,18.95
2023-03-21T10:41:51.275Z,19.02
2023-03-21T10:44:21.618Z,19.07
2023-03-21T10:47:06.372Z,19.77
2023-03-21T10:50:06.373Z,20.34
2023-03-21T10:52:31.293Z,20.39
2023-03-21T10:55:36.280Z,20.60
2023-03-21T10:58:35.489Z,20.55
2023-03-21T11:01:13.097Z,20.22
2023-03-21T11:03:47.008Z,20.77
2023-03-21T11:06:32.106Z,20.38
2023-03-21T11:09:09.754Z,20.75
2023-03-21T11:11:50.877Z,20.18
2023-03-21T11:14:51.238Z,20.90
2023-03-21T11:17:24.829Z,20.72
2023-03-21T11:20:00.918Z,20.57
2023-03-21T11:22:43.637Z,21.35
2023-03-21T11:25:33.255Z,21.88
2023-03-21T11:28:23.088Z,21.72
2023-03-21T11:30:58.662Z,21.23
2023-03-21T11:33:46.697Z,22.25
2023-03-21T11:36:19.143Z,20.88
2023-03-21T11:39:03.419Z,21.59
2023-03-21T11:41:35.317Z,20.51
2023-03-21T11:44:05.076Z,19.67
2023-03-21T11:46:41.574Z,20.00
2023-03-21T11:49:11.836Z,18.84
2023-03-21T11:52:21.839Z,19.15
2023-03-21T11:55:52.994Z,19.15
2023-03-21T11:59:08.048Z,19.15
2023-03-21T12:02:04.253Z,19.80
2023-03-21T12:04:47.044Z,19.90
2023-03-21T12:07:26.566Z,20.45
2023-03-21T12:10:21.576Z,20.06
2023-03-21T12:13:33.151Z,20.63
2023-03-21T12:16:37.630Z,20.10
2023-03-21T12:19:27.560Z,19.32
2023-03-21T12:22:37.037Z,18.64
2023-03-21T12:25:25.723Z,18.65
2023-03-21T12:28:12.764Z,19.82
2023-03-21T12:31:14.257Z,20.48
2023-03-21T12:34:46.801Z,20.92
2023-03-21T12:37:33.949Z,21.06
2023-03-21T12:40:55.605Z,20.20
2023-03-21T12:43:32.284Z,20.35
2023-03-21T12:46:40.611Z,20.20
2023-03-21T12:49:29.572Z,19.14
2023-03-21T12:52:28.569Z,19.86
2023-03-21T12:55:19.474Z,20.45
2023-03-21T12:58:25.486Z,20.53
2023-03-21T13:01:01.689Z,19.04
2023-03-21T13:03:43.944Z,19.00
2023-03-21T13:06:18.365Z,18.70
2023-03-21T13:09:14.862Z,18.58
2023-03-21T13:11:45.782Z,18.24
2023-03-21T13:14:39.637Z,18.31
2023-03-21T13:17:27.769Z,18.63
2023-03-21T13:20:41.976Z,19.18
2023-03-21T13:23:11.999Z,20.07
2023-03-21T13:25:53.167Z,19.95
2023-03-21T13:28:35.420Z,20.09
2023-03-21T13:31:26.537Z,19.21
2023-03-21T13:33:59.894Z,19.27
2023-03-21T13:36:31.851Z,19.00
2023-03-21T13:39:06.073Z,18.87
2023-03-21T13:41:43.145Z,18.92
2023-03-21T13:45:00.862Z,18.42
2023-03-21T13:48:00.723Z,18.23
2023-03-21T13:51:02.158Z,18.27
2023-03-21T13:53:45.900Z,18.77
2023-03-21T13:56:17.220Z,19.49
2023-03-21T13:58:46.717Z,19.21
2023-03-21T14:01:42.524Z,18.75
2023-03-21T14:04:24.150Z,18.67
2023-03-21T14:07:08.647Z,19.04
2023-03-21T14:09:50.803Z,18.87
2023-03-21T14:12:32.568Z,19.11
2023-03-21T14:15:27.789Z,19.03
2023-03-21T14:18:16.085Z,19.13
2023-03-21T14:20:57.036Z,18.73
2023-03-21T14:23:25.827Z,18.16
2023-03-21T14:25:53.723Z,18.19
2023-03-21T14:28:33.263Z,18.41
2023-03-21T14:31:04.646Z,18.37
2023-03-21T14:33:49.615Z,18.51
2023-03-21T14:36:36.061Z,18.72
2023-03-21T14:39:28.977Z,19.19
2023-03-21T14:42:13.759Z,18.73
2023-03-21T14:44:55.416Z,18.44
2023-03-21T14:47:32.244Z,18.04
2023-03-21T14:50:03.398Z,18.09
2023-03-21T14:52:35.651Z,17.90
2023-03-21T14:55:15.766Z,18.08
2023-03-21T14:57:43.668Z,18.51
2023-03-21T15:00:31.017Z,18.50
2023-03-21T15:03:01.327Z,18.40
2023-03-21T15:05:39.657Z,18.37
2023-03-21T15:08:18.100Z,18.47
2023-03-21T15:11:12.067Z,18.60
2023-03-21T15:13:52.682Z,18.32
2023-03-21T15:16:21.040Z,18.65
2023-03-21T15:18:50.506Z,18.67
2023-03-21T15:21:38.495Z,18.53
2023-03-21T15:24:28.522Z,18.54
2023-03-21T15:27:07.437Z,18.44
2023-03-21T15:29:37.176Z,18.44
2023-03-21T15:32:19.921Z,18.23
2023-03-21T15:34:50.621Z,18.40
2023-03-21T15:37:27.790Z,18.26
2023-03-21T15:40:22.554Z,18.16
2023-03-21T15:42:52.800Z,17.43
2023-03-21T15:45:27.702Z,17.49
2023-03-21T15:48:08.256Z,17.15
2023-03-21T15:50:41.165Z,17.16
2023-03-21T15:53:18.268Z,16.91
2023-03-21T15:55:52.081Z,16.97
2023-03-21T15:58:34.794Z,16.86
2023-03-21T16:01:26.569Z,16.64
2023-03-21T16:04:13.384Z,16.73
2023-03-21T16:07:17.379Z,16.54
2023-03-21T16:09:47.485Z,16.61
2023-03-21T16:12:18.769Z,16.57
2023-03-21T16:14:48.913Z,16.54
2023-03-21T16:17:39.640Z,16.37
2023-03-21T16:20:23.791Z,16.48
2023-03-21T16:22:53.606Z,16.44
2023-03-21T16:25:22.762Z,16.30
2023-03-21T16:27:51.583Z,16.19
2023-03-21T16:30:23.810Z,16.17
2023-03-21T16:32:52.436Z,16.05
2023-03-21T16:35:23.480Z,16.05
2023-03-21T16:37:52.299Z,15.91
2023-03-21T16:40:26.475Z,15.74
2023-03-21T16:42:55.477Z,15.68
2023-03-21T16:45:25.115Z,15.63
2023-03-21T16:47:53.757Z,15.54
2023-03-21T16:50:43.059Z,15.52
2023-03-21T16:53:11.769Z,15.49
2023-03-21T16:55:40.493Z,15.46
2023-03-21T16:58:11.653Z,15.33
2023-03-21T17:00:40.536Z,15.45
2023-03-21T17:03:19.263Z,15.31
2023-03-21T17:05:48.979Z,15.39
2023-03-21T17:08:21.997Z,15.31
2023-03-21T17:10:51.485Z,15.25
2023-03-21T17:13:20.965Z,14.82
2023-03-21T17:15:49.552Z,14.79
2023-03-21T17:18:18.270Z,14.76
2023-03-21T17:20:46.935Z,14.61
2023-03-21T17:23:15.708Z,14.64
2023-03-21T17:25:44.280Z,14.57
2023-03-21T17:28:13.740Z,14.47
2023-03-21T17:30:43.568Z,14.41
2023-03-21T17:33:14.890Z,14.34
2023-03-21T17:35:43.662Z,14.30
2023-03-21T17:38:17.744Z,14.25
2023-03-21T17:40:45.512Z,14.17
2023-03-21T17:43:21.118Z,14.13
2023-03-21T17:45:49.076Z,14.09
2023-03-21T17:48:17.960Z,14.12
2023-03-21T17:50:47.643Z,14.03
2023-03-21T17:53:16.455Z,13.90
2023-03-21T17:55:46.833Z,13.87
2023-03-21T17:58:17.846Z,14.04
2023-03-21T18:00:47.403Z,14.10
2023-03-21T18:03:18.388Z,14.09
2023-03-21T18:05:48.893Z,14.04
2023-03-21T18:08:18.428Z,13.97
2023-03-21T18:10:47.935Z,13.66
2023-03-21T18:13:17.589Z,13.43
2023-03-21T18:15:48.348Z,13.37
2023-03-21T18:18:18.406Z,13.34
2023-03-21T18:20:53.733Z,13.47
2023-03-21T18:23:23.953Z,13.53
2023-03-21T18:25:53.649Z,13.52
2023-03-21T18:28:23.034Z,13.30
2023-03-21T18:31:08.186Z,13.09
2023-03-21T18:33:41.195Z,12.81
2023-03-21T18:36:15.538Z,12.75
2023-03-21T18:38:46.167Z,12.68
2023-03-21T18:41:18.950Z,12.54
2023-03-21T18:44:13.582Z,12.35
2023-03-21T18:46:37.833Z,12.32
2023-03-21T18:49:56.101Z,12.28
2023-03-21T18:51:57.823Z,12.28
2023-03-21T18:54:27.839Z,11.99
2023-03-21T18:57:33.829Z,12.04
2023-03-21T18:59:47.809Z,11.75
2023-03-21T19:02:17.311Z,11.53
2023-03-21T19:04:46.769Z,11.51
2023-03-21T19:07:15.657Z,11.53
2023-03-21T19:10:15.368Z,11.42
2023-03-21T19:12:35.335Z,11.54
2023-03-21T19:15:06.340Z,11.65
2023-03-21T19:18:24.849Z,11.37
2023-03-21T19:20:23.929Z,11.32
2023-03-21T19:22:53.639Z,11.16
2023-03-21T19:25:22.329Z,11.15
2023-03-21T19:27:52.315Z,11.09
2023-03-21T19:30:22.078Z,11.09
2023-03-21T19:32:50.799Z,11.08
2023-03-21T19:35:20.440Z,11.09
2023-03-21T19:37:49.887Z,10.99
2023-03-21T19:40:20.047Z,10.74
2023-03-21T19:42:49.483Z,10.63
2023-03-21T19:45:19.200Z,10.38
2023-03-21T19:47:48.690Z,10.38
2023-03-21T19:53:06.736Z,10.19
2023-03-21T19:55:36.582Z,10.02
2023-03-21T19:58:07.236Z,9.88
2023-03-21T20:00:37.745Z,9.41
2023-03-21T20:03:09.003Z,8.64
2023-03-21T20:05:38.785Z,8.77
2023-03-21T20:08:10.993Z,8.75
2023-03-21T20:10:41.641Z,8.88
2023-03-21T20:13:11.215Z,9.32
2023-03-21T20:15:47.768Z,9.41
2023-03-21T20:18:18.776Z,9.30
2023-03-21T20:20:48.426Z,9.48
2023-03-21T20:23:19.452Z,9.49
2023-03-21T20:25:49.690Z,9.56
2023-03-21T20:28:25.513Z,9.76
2023-03-21T20:30:59.522Z,9.91
2023-03-21T20:33:30.350Z,9.94
2023-03-21T20:38:55.529Z,9.98
2023-03-21T20:41:25.009Z,9.92
2023-03-21T20:46:47.724Z,9.96
2023-03-21T20:49:17.261Z,10.00
2023-03-21T20:52:46.233Z,10.06
2023-03-21T20:54:36.654Z,9.87
2023-03-21T20:57:05.814Z,9.86
2023-03-21T20:59:35.332Z,9.77
2023-03-21T21:02:04.272Z,9.63
2023-03-21T21:07:23.391Z,9.83
2023-03-21T21:09:54.680Z,9.86
2023-03-21T21:12:28.716Z,9.87
2023-03-21T21:14:57.466Z,10.06
2023-03-21T21:17:53.992Z,10.21
2023-03-21T21:20:17.145Z,9.96
2023-03-21T21:23:00.459Z,10.13
2023-03-21T21:25:33.085Z,9.89
2023-03-21T21:28:03.866Z,9.85
2023-03-21T21:30:34.193Z,9.62
2023-03-21T21:33:02.887Z,9.58
2023-03-21T21:35:33.704Z,9.29
2023-03-21T21:38:02.741Z,9.29
2023-03-21T21:40:32.268Z,9.47
2023-03-21T21:43:03.649Z,9.39
2023-03-21T21:45:33.679Z,9.35
2023-03-21T21:48:03.296Z,9.37
2023-03-21T21:50:31.991Z,9.39
2023-03-21T21:53:04.398Z,9.13
2023-03-21T21:55:35.174Z,9.09
2023-03-21T21:58:04.841Z,9.05
2023-03-21T22:00:34.673Z,9.06
2023-03-21T22:03:04.499Z,8.98
2023-03-21T22:05:34.053Z,8.94
2023-03-21T22:08:04.301Z,8.87
2023-03-21T22:10:34.154Z,9.04
2023-03-21T22:13:03.706Z,8.93
2023-03-21T22:15:33.487Z,8.69
2023-03-21T22:18:03.944Z,8.51
2023-03-21T22:20:34.139Z,8.69
2023-03-21T22:23:03.907Z,8.63
2023-03-21T22:25:33.456Z,8.43
2023-03-21T22:28:03.257Z,8.38
2023-03-21T22:30:33.994Z,8.09
2023-03-21T22:33:09.541Z,7.83
2023-03-21T22:35:39.536Z,8.25
2023-03-21T22:38:09.143Z,8.24
2023-03-21T22:40:39.000Z,8.30
2023-03-21T22:43:08.932Z,7.95
2023-03-21T22:45:38.480Z,8.14
2023-03-21T22:48:08.075Z,8.10
2023-03-21T22:50:38.190Z,7.95
2023-03-21T22:53:08.065Z,7.85
2023-03-21T22:55:38.478Z,7.85
2023-03-21T22:58:08.016Z,7.85
2023-03-21T23:00:37.781Z,7.55
2023-03-21T23:03:07.394Z,7.60
2023-03-21T23:05:41.788Z,7.52
2023-03-21T23:08:11.872Z,7.71
2023-03-21T23:10:43.956Z,7.65
2023-03-21T23:13:13.580Z,7.69
2023-03-21T23:15:43.140Z,7.56
2023-03-21T23:18:12.003Z,7.61
2023-03-21T23:20:41.994Z,7.60
2023-03-21T23:23:11.830Z,7.65
2023-03-21T23:25:42.547Z,7.76
2023-03-21T23:28:12.161Z,7.68
2023-03-21T23:30:42.033Z,7.62
2023-03-21T23:33:10.971Z,7.58
2023-03-21T23:35:40.524Z,7.50
2023-03-21T23:38:09.999Z,7.50
2023-03-21T23:40:40.539Z,7.33
2023-03-21T23:43:10.538Z,7.18
2023-03-21T23:45:39.991Z,6.82
2023-03-21T23:48:09.583Z,6.94
2023-03-21T23:50:39.544Z,6.64
2023-03-21T23:53:09.109Z,6.87
2023-03-21T23:55:41.224Z,6.60
2023-03-21T23:58:10.931Z,6.77
